sensor_id;sensor_type;location;lat;lon;timestamp;P1;durP1;ratioP1;P2;durP2;ratioP2
5559;SDS011;2803;47.916;8.074;2023-05-09T00:01:25;5.30;;;2.83;;
5559;SDS011;2803;47.916;8.074;2023-05-09T00:03:53;8.83;;;3.07;;
5559;SDS011;2803;47.916;8.074;2023-05-09T00:06:20;3.60;;;2.57;;
5559;SDS011;2803;47.916;8.074;2023-05-09T00:08:47;5.37;;;3.33;;
5559;SDS011;2803;47.916;8.074;2023-05-09T00:11:15;5.63;;;3.00;;
5559;SDS011;2803;47.916;8.074;2023-05-09T00:13:41;4.73;;;2.77;;
5559;SDS011;2803;47.916;8.074;2023-05-09T00:16:09;8.47;;;3.57;;
5559;SDS011;2803;47.916;8.074;2023-05-09T00:18:36;4.23;;;2.43;;
5559;SDS011;2803;47.916;8.074;2023-05-09T00:21:06;4.47;;;2.70;;
5559;SDS011;2803;47.916;8.074;2023-05-09T00:23:33;10.83;;;2.80;;
5559;SDS011;2803;47.916;8.074;2023-05-09T00:25:59;5.00;;;2.97;;
5559;SDS011;2803;47.916;8.074;2023-05-09T00:28:27;8.17;;;3.03;;
5559;SDS011;2803;47.916;8.074;2023-05-09T00:30:54;4.83;;;2.87;;
5559;SDS011;2803;47.916;8.074;2023-05-09T00:33:21;8.20;;;3.50;;
5559;SDS011;2803;47.916;8.074;2023-05-09T00:35:50;4.03;;;3.53;;
5559;SDS011;2803;47.916;8.074;2023-05-09T00:38:17;3.67;;;2.80;;
5559;SDS011;2803;47.916;8.074;2023-05-09T00:40:44;5.27;;;2.80;;
5559;SDS011;2803;47.916;8.074;2023-05-09T00:43:10;3.40;;;2.63;;
5559;SDS011;2803;47.916;8.074;2023-05-09T00:45:38;9.40;;;3.80;;
5559;SDS011;2803;47.916;8.074;2023-05-09T00:48:05;4.70;;;3.40;;
5559;SDS011;2803;47.916;8.074;2023-05-09T00:50:32;4.60;;;2.40;;
5559;SDS011;2803;47.916;8.074;2023-05-09T00:52:59;5.77;;;2.23;;
5559;SDS011;2803;47.916;8.074;2023-05-09T00:55:25;8.13;;;2.57;;
5559;SDS011;2803;47.916;8.074;2023-05-09T00:57:52;7.50;;;3.33;;
5559;SDS011;2803;47.916;8.074;2023-05-09T01:00:19;5.50;;;3.00;;
5559;SDS011;2803;47.916;8.074;2023-05-09T01:02:48;3.77;;;3.20;;
5559;SDS011;2803;47.916;8.074;2023-05-09T01:05:18;2.80;;;2.60;;
5559;SDS011;2803;47.916;8.074;2023-05-09T01:07:49;3.33;;;2.90;;
5559;SDS011;2803;47.916;8.074;2023-05-09T01:10:24;2.83;;;2.50;;
5559;SDS011;2803;47.916;8.074;2023-05-09T01:13:09;3.07;;;2.50;;
5559;SDS011;2803;47.916;8.074;2023-05-09T01:15:45;5.87;;;2.20;;
5559;SDS011;2803;47.916;8.074;2023-05-09T01:18:20;3.27;;;2.40;;
5559;SDS011;2803;47.916;8.074;2023-05-09T01:20:53;13.20;;;2.87;;
5559;SDS011;2803;47.916;8.074;2023-05-09T01:23:42;7.20;;;2.60;;
5559;SDS011;2803;47.916;8.074;2023-05-09T01:26:23;3.57;;;2.40;;
5559;SDS011;2803;47.916;8.074;2023-05-09T01:28:59;4.57;;;2.53;;
5559;SDS011;2803;47.916;8.074;2023-05-09T01:31:44;12.13;;;3.10;;
5559;SDS011;2803;47.916;8.074;2023-05-09T01:34:13;9.73;;;3.07;;
5559;SDS011;2803;47.916;8.074;2023-05-09T01:36:41;4.57;;;2.53;;
5559;SDS011;2803;47.916;8.074;2023-05-09T01:39:09;10.13;;;2.70;;
5559;SDS011;2803;47.916;8.074;2023-05-09T01:41:38;4.07;;;2.90;;
5559;SDS011;2803;47.916;8.074;2023-05-09T01:44:05;5.07;;;2.77;;
5559;SDS011;2803;47.916;8.074;2023-05-09T01:46:35;3.50;;;2.83;;
5559;SDS011;2803;47.916;8.074;2023-05-09T01:49:04;4.70;;;2.20;;
5559;SDS011;2803;47.916;8.074;2023-05-09T01:51:33;5.10;;;2.50;;
5559;SDS011;2803;47.916;8.074;2023-05-09T01:54:02;5.33;;;2.77;;
5559;SDS011;2803;47.916;8.074;2023-05-09T01:56:30;4.60;;;3.03;;
5559;SDS011;2803;47.916;8.074;2023-05-09T01:58:57;4.17;;;3.00;;
5559;SDS011;2803;47.916;8.074;2023-05-09T02:01:25;8.00;;;2.87;;
5559;SDS011;2803;47.916;8.074;2023-05-09T02:03:53;4.40;;;2.47;;
5559;SDS011;2803;47.916;8.074;2023-05-09T02:06:22;5.07;;;2.67;;
5559;SDS011;2803;47.916;8.074;2023-05-09T02:08:50;7.17;;;2.70;;
5559;SDS011;2803;47.916;8.074;2023-05-09T02:11:17;3.60;;;2.70;;
5559;SDS011;2803;47.916;8.074;2023-05-09T02:13:43;12.53;;;3.70;;
5559;SDS011;2803;47.916;8.074;2023-05-09T02:16:10;5.80;;;3.73;;
5559;SDS011;2803;47.916;8.074;2023-05-09T02:18:37;5.53;;;3.63;;
5559;SDS011;2803;47.916;8.074;2023-05-09T02:21:03;3.07;;;2.77;;
5559;SDS011;2803;47.916;8.074;2023-05-09T02:23:32;6.40;;;2.50;;
5559;SDS011;2803;47.916;8.074;2023-05-09T02:25:59;4.37;;;2.87;;
5559;SDS011;2803;47.916;8.074;2023-05-09T02:28:27;5.37;;;3.47;;
5559;SDS011;2803;47.916;8.074;2023-05-09T02:30:54;3.60;;;2.63;;
5559;SDS011;2803;47.916;8.074;2023-05-09T02:33:23;7.00;;;3.27;;
5559;SDS011;2803;47.916;8.074;2023-05-09T02:35:51;6.33;;;4.07;;
5559;SDS011;2803;47.916;8.074;2023-05-09T02:38:18;7.13;;;3.67;;
5559;SDS011;2803;47.916;8.074;2023-05-09T02:40:47;6.60;;;3.30;;
5559;SDS011;2803;47.916;8.074;2023-05-09T02:43:15;6.03;;;3.10;;
5559;SDS011;2803;47.916;8.074;2023-05-09T02:45:41;4.77;;;3.60;;
5559;SDS011;2803;47.916;8.074;2023-05-09T02:48:08;3.40;;;3.10;;
5559;SDS011;2803;47.916;8.074;2023-05-09T02:50:34;3.80;;;3.20;;
5559;SDS011;2803;47.916;8.074;2023-05-09T02:53:03;3.90;;;3.37;;
5559;SDS011;2803;47.916;8.074;2023-05-09T02:55:30;3.93;;;3.30;;
5559;SDS011;2803;47.916;8.074;2023-05-09T02:57:58;3.70;;;3.30;;
5559;SDS011;2803;47.916;8.074;2023-05-09T03:00:25;7.00;;;3.23;;
5559;SDS011;2803;47.916;8.074;2023-05-09T03:02:51;3.80;;;3.40;;
5559;SDS011;2803;47.916;8.074;2023-05-09T03:05:18;5.13;;;4.00;;
5559;SDS011;2803;47.916;8.074;2023-05-09T03:07:45;4.57;;;3.50;;
5559;SDS011;2803;47.916;8.074;2023-05-09T03:10:12;7.47;;;4.40;;
5559;SDS011;2803;47.916;8.074;2023-05-09T03:12:39;4.30;;;3.43;;
5559;SDS011;2803;47.916;8.074;2023-05-09T03:15:09;4.40;;;3.57;;
5559;SDS011;2803;47.916;8.074;2023-05-09T03:17:35;6.03;;;3.47;;
5559;SDS011;2803;47.916;8.074;2023-05-09T03:20:02;4.20;;;3.03;;
5559;SDS011;2803;47.916;8.074;2023-05-09T03:22:29;7.20;;;3.23;;
5559;SDS011;2803;47.916;8.074;2023-05-09T03:24:56;18.93;;;3.40;;
5559;SDS011;2803;47.916;8.074;2023-05-09T03:27:22;3.13;;;2.83;;
5559;SDS011;2803;47.916;8.074;2023-05-09T03:29:50;3.20;;;2.90;;
5559;SDS011;2803;47.916;8.074;2023-05-09T03:32:18;9.53;;;3.10;;
5559;SDS011;2803;47.916;8.074;2023-05-09T03:34:44;5.93;;;2.73;;
5559;SDS011;2803;47.916;8.074;2023-05-09T03:37:11;8.17;;;3.30;;
5559;SDS011;2803;47.916;8.074;2023-05-09T03:39:37;4.10;;;3.70;;
5559;SDS011;2803;47.916;8.074;2023-05-09T03:42:04;4.43;;;3.50;;
5559;SDS011;2803;47.916;8.074;2023-05-09T03:44:31;3.60;;;3.30;;
5559;SDS011;2803;47.916;8.074;2023-05-09T03:46:58;6.23;;;4.23;;
5559;SDS011;2803;47.916;8.074;2023-05-09T03:49:25;4.80;;;3.80;;
5559;SDS011;2803;47.916;8.074;2023-05-09T03:51:52;8.00;;;4.00;;
5559;SDS011;2803;47.916;8.074;2023-05-09T03:54:19;6.07;;;4.50;;
5559;SDS011;2803;47.916;8.074;2023-05-09T03:56:45;6.90;;;4.07;;
5559;SDS011;2803;47.916;8.074;2023-05-09T03:59:12;6.20;;;3.90;;
5559;SDS011;2803;47.916;8.074;2023-05-09T04:01:39;8.47;;;3.80;;
5559;SDS011;2803;47.916;8.074;2023-05-09T04:04:06;3.63;;;2.77;;
5559;SDS011;2803;47.916;8.074;2023-05-09T04:06:34;4.00;;;3.10;;
5559;SDS011;2803;47.916;8.074;2023-05-09T04:09:01;4.17;;;3.67;;
5559;SDS011;2803;47.916;8.074;2023-05-09T04:11:28;5.03;;;3.57;;
5559;SDS011;2803;47.916;8.074;2023-05-09T04:13:54;4.47;;;3.50;;
5559;SDS011;2803;47.916;8.074;2023-05-09T04:16:21;7.90;;;3.10;;
5559;SDS011;2803;47.916;8.074;2023-05-09T04:18:48;3.33;;;2.83;;
5559;SDS011;2803;47.916;8.074;2023-05-09T04:21:14;3.27;;;2.27;;
5559;SDS011;2803;47.916;8.074;2023-05-09T04:23:42;4.90;;;2.30;;
5559;SDS011;2803;47.916;8.074;2023-05-09T04:26:09;4.43;;;2.80;;
5559;SDS011;2803;47.916;8.074;2023-05-09T04:28:36;8.63;;;3.13;;
5559;SDS011;2803;47.916;8.074;2023-05-09T04:31:03;6.37;;;4.03;;
5559;SDS011;2803;47.916;8.074;2023-05-09T04:33:30;4.13;;;3.50;;
5559;SDS011;2803;47.916;8.074;2023-05-09T04:35:57;5.30;;;3.67;;
5559;SDS011;2803;47.916;8.074;2023-05-09T04:38:23;3.70;;;3.10;;
5559;SDS011;2803;47.916;8.074;2023-05-09T04:40:51;4.67;;;4.10;;
5559;SDS011;2803;47.916;8.074;2023-05-09T04:43:18;6.50;;;3.67;;
5559;SDS011;2803;47.916;8.074;2023-05-09T04:45:44;4.63;;;3.80;;
5559;SDS011;2803;47.916;8.074;2023-05-09T04:48:11;4.63;;;3.80;;
5559;SDS011;2803;47.916;8.074;2023-05-09T04:50:39;3.73;;;3.30;;
5559;SDS011;2803;47.916;8.074;2023-05-09T04:53:06;3.70;;;3.30;;
5559;SDS011;2803;47.916;8.074;2023-05-09T04:55:33;4.80;;;3.80;;
5559;SDS011;2803;47.916;8.074;2023-05-09T04:58:01;4.27;;;3.40;;
5559;SDS011;2803;47.916;8.074;2023-05-09T05:00:27;5.50;;;3.17;;
5559;SDS011;2803;47.916;8.074;2023-05-09T05:02:55;3.77;;;3.10;;
5559;SDS011;2803;47.916;8.074;2023-05-09T05:05:21;3.50;;;3.20;;
5559;SDS011;2803;47.916;8.074;2023-05-09T05:07:48;4.00;;;3.43;;
5559;SDS011;2803;47.916;8.074;2023-05-09T05:10:14;4.30;;;3.63;;
5559;SDS011;2803;47.916;8.074;2023-05-09T05:12:41;8.67;;;3.47;;
5559;SDS011;2803;47.916;8.074;2023-05-09T05:15:09;4.83;;;3.83;;
5559;SDS011;2803;47.916;8.074;2023-05-09T05:17:37;5.33;;;3.20;;
5559;SDS011;2803;47.916;8.074;2023-05-09T05:20:03;5.63;;;4.20;;
5559;SDS011;2803;47.916;8.074;2023-05-09T05:22:32;4.57;;;3.00;;
5559;SDS011;2803;47.916;8.074;2023-05-09T05:24:59;12.40;;;4.03;;
5559;SDS011;2803;47.916;8.074;2023-05-09T05:27:27;5.00;;;3.20;;
5559;SDS011;2803;47.916;8.074;2023-05-09T05:29:54;6.00;;;3.60;;
5559;SDS011;2803;47.916;8.074;2023-05-09T05:32:22;5.63;;;3.23;;
5559;SDS011;2803;47.916;8.074;2023-05-09T05:34:49;4.27;;;2.77;;
5559;SDS011;2803;47.916;8.074;2023-05-09T05:37:15;4.30;;;2.33;;
5559;SDS011;2803;47.916;8.074;2023-05-09T05:39:42;4.33;;;2.13;;
5559;SDS011;2803;47.916;8.074;2023-05-09T05:42:08;5.77;;;2.47;;
5559;SDS011;2803;47.916;8.074;2023-05-09T05:44:35;3.37;;;2.87;;
5559;SDS011;2803;47.916;8.074;2023-05-09T05:47:02;5.23;;;2.70;;
5559;SDS011;2803;47.916;8.074;2023-05-09T05:49:29;2.57;;;2.37;;
5559;SDS011;2803;47.916;8.074;2023-05-09T05:51:56;3.40;;;2.63;;
5559;SDS011;2803;47.916;8.074;2023-05-09T05:54:23;1.97;;;1.80;;
5559;SDS011;2803;47.916;8.074;2023-05-09T05:56:49;3.50;;;2.10;;
5559;SDS011;2803;47.916;8.074;2023-05-09T05:59:16;2.83;;;2.30;;
5559;SDS011;2803;47.916;8.074;2023-05-09T06:01:42;1.73;;;1.63;;
5559;SDS011;2803;47.916;8.074;2023-05-09T06:04:09;6.10;;;2.50;;
5559;SDS011;2803;47.916;8.074;2023-05-09T06:06:37;2.83;;;2.53;;
5559;SDS011;2803;47.916;8.074;2023-05-09T06:09:03;2.20;;;2.00;;
5559;SDS011;2803;47.916;8.074;2023-05-09T06:11:30;2.50;;;2.30;;
5559;SDS011;2803;47.916;8.074;2023-05-09T06:13:57;2.97;;;2.37;;
5559;SDS011;2803;47.916;8.074;2023-05-09T06:16:23;2.80;;;2.50;;
5559;SDS011;2803;47.916;8.074;2023-05-09T06:18:50;3.67;;;2.60;;
5559;SDS011;2803;47.916;8.074;2023-05-09T06:21:17;4.13;;;2.23;;
5559;SDS011;2803;47.916;8.074;2023-05-09T06:23:44;3.67;;;2.60;;
5559;SDS011;2803;47.916;8.074;2023-05-09T06:26:11;2.77;;;2.47;;
5559;SDS011;2803;47.916;8.074;2023-05-09T06:28:38;12.23;;;3.53;;
5559;SDS011;2803;47.916;8.074;2023-05-09T06:31:05;2.80;;;2.27;;
5559;SDS011;2803;47.916;8.074;2023-05-09T06:33:32;2.27;;;2.07;;
5559;SDS011;2803;47.916;8.074;2023-05-09T06:35:58;2.40;;;2.10;;
5559;SDS011;2803;47.916;8.074;2023-05-09T06:38:25;3.73;;;2.00;;
5559;SDS011;2803;47.916;8.074;2023-05-09T06:40:53;2.47;;;2.27;;
5559;SDS011;2803;47.916;8.074;2023-05-09T06:43:19;3.97;;;2.23;;
5559;SDS011;2803;47.916;8.074;2023-05-09T06:45:46;2.30;;;2.10;;
5559;SDS011;2803;47.916;8.074;2023-05-09T06:48:13;2.37;;;2.00;;
5559;SDS011;2803;47.916;8.074;2023-05-09T06:50:39;6.83;;;2.20;;
5559;SDS011;2803;47.916;8.074;2023-05-09T06:53:06;2.70;;;1.80;;
5559;SDS011;2803;47.916;8.074;2023-05-09T06:55:32;3.80;;;2.20;;
5559;SDS011;2803;47.916;8.074;2023-05-09T06:58:00;1.73;;;1.60;;
5559;SDS011;2803;47.916;8.074;2023-05-09T07:00:28;3.10;;;1.90;;
5559;SDS011;2803;47.916;8.074;2023-05-09T07:02:55;4.23;;;2.20;;
5559;SDS011;2803;47.916;8.074;2023-05-09T07:05:21;1.87;;;1.70;;
5559;SDS011;2803;47.916;8.074;2023-05-09T07:07:48;7.13;;;2.37;;
5559;SDS011;2803;47.916;8.074;2023-05-09T07:10:15;2.17;;;1.80;;
5559;SDS011;2803;47.916;8.074;2023-05-09T07:12:42;3.30;;;1.83;;
5559;SDS011;2803;47.916;8.074;2023-05-09T07:15:10;1.87;;;1.70;;
5559;SDS011;2803;47.916;8.074;2023-05-09T07:17:37;2.90;;;2.10;;
5559;SDS011;2803;47.916;8.074;2023-05-09T07:20:04;3.10;;;1.70;;
5559;SDS011;2803;47.916;8.074;2023-05-09T07:22:31;1.90;;;1.53;;
5559;SDS011;2803;47.916;8.074;2023-05-09T07:24:58;4.40;;;1.90;;
5559;SDS011;2803;47.916;8.074;2023-05-09T07:27:25;9.73;;;2.57;;
5559;SDS011;2803;47.916;8.074;2023-05-09T07:29:51;7.43;;;2.13;;
5559;SDS011;2803;47.916;8.074;2023-05-09T07:32:19;2.30;;;1.80;;
5559;SDS011;2803;47.916;8.074;2023-05-09T07:34:46;6.40;;;1.93;;
5559;SDS011;2803;47.916;8.074;2023-05-09T07:37:13;3.97;;;2.13;;
5559;SDS011;2803;47.916;8.074;2023-05-09T07:39:39;2.10;;;1.83;;
5559;SDS011;2803;47.916;8.074;2023-05-09T07:42:06;3.10;;;2.23;;
5559;SDS011;2803;47.916;8.074;2023-05-09T07:44:33;2.33;;;2.00;;
5559;SDS011;2803;47.916;8.074;2023-05-09T07:46:59;6.17;;;2.10;;
5559;SDS011;2803;47.916;8.074;2023-05-09T07:49:27;9.97;;;5.60;;
5559;SDS011;2803;47.916;8.074;2023-05-09T07:51:54;99.67;;;37.43;;
5559;SDS011;2803;47.916;8.074;2023-05-09T07:54:21;72.03;;;27.43;;
5559;SDS011;2803;47.916;8.074;2023-05-09T07:56:47;63.77;;;25.30;;
5559;SDS011;2803;47.916;8.074;2023-05-09T07:59:14;31.93;;;15.47;;
5559;SDS011;2803;47.916;8.074;2023-05-09T08:01:41;27.27;;;12.70;;
5559;SDS011;2803;47.916;8.074;2023-05-09T08:04:07;19.70;;;9.80;;
5559;SDS011;2803;47.916;8.074;2023-05-09T08:06:35;18.53;;;9.27;;
5559;SDS011;2803;47.916;8.074;2023-05-09T08:09:02;13.50;;;6.17;;
5559;SDS011;2803;47.916;8.074;2023-05-09T08:11:31;8.37;;;4.70;;
5559;SDS011;2803;47.916;8.074;2023-05-09T08:13:58;9.47;;;4.93;;
5559;SDS011;2803;47.916;8.074;2023-05-09T08:16:25;11.03;;;3.90;;
5559;SDS011;2803;47.916;8.074;2023-05-09T08:18:51;5.67;;;3.00;;
5559;SDS011;2803;47.916;8.074;2023-05-09T08:21:18;4.90;;;2.30;;
5559;SDS011;2803;47.916;8.074;2023-05-09T08:23:46;4.30;;;2.47;;
5559;SDS011;2803;47.916;8.074;2023-05-09T08:26:13;2.67;;;2.27;;
5559;SDS011;2803;47.916;8.074;2023-05-09T08:28:40;7.13;;;1.63;;
5559;SDS011;2803;47.916;8.074;2023-05-09T08:31:07;4.40;;;1.70;;
5559;SDS011;2803;47.916;8.074;2023-05-09T08:33:34;4.37;;;1.93;;
5559;SDS011;2803;47.916;8.074;2023-05-09T08:36:01;3.23;;;2.00;;
5559;SDS011;2803;47.916;8.074;2023-05-09T08:38:28;4.47;;;2.60;;
5559;SDS011;2803;47.916;8.074;2023-05-09T08:41:00;3.50;;;2.50;;
5559;SDS011;2803;47.916;8.074;2023-05-09T08:43:27;13.13;;;2.57;;
5559;SDS011;2803;47.916;8.074;2023-05-09T08:45:55;9.73;;;1.80;;
5559;SDS011;2803;47.916;8.074;2023-05-09T08:48:24;13.90;;;2.07;;
5559;SDS011;2803;47.916;8.074;2023-05-09T08:50:51;3.53;;;2.17;;
5559;SDS011;2803;47.916;8.074;2023-05-09T08:53:18;12.33;;;2.40;;
5559;SDS011;2803;47.916;8.074;2023-05-09T08:55:45;2.70;;;1.90;;
5559;SDS011;2803;47.916;8.074;2023-05-09T08:58:13;8.00;;;2.50;;
5559;SDS011;2803;47.916;8.074;2023-05-09T09:00:40;3.10;;;2.03;;
5559;SDS011;2803;47.916;8.074;2023-05-09T09:03:07;2.63;;;2.00;;
5559;SDS011;2803;47.916;8.074;2023-05-09T09:05:35;11.53;;;2.63;;
5559;SDS011;2803;47.916;8.074;2023-05-09T09:08:03;2.50;;;2.27;;
5559;SDS011;2803;47.916;8.074;2023-05-09T09:10:32;11.13;;;1.93;;
5559;SDS011;2803;47.916;8.074;2023-05-09T09:13:00;5.17;;;2.07;;
5559;SDS011;2803;47.916;8.074;2023-05-09T09:15:33;5.53;;;1.93;;
5559;SDS011;2803;47.916;8.074;2023-05-09T09:18:03;3.60;;;2.00;;
5559;SDS011;2803;47.916;8.074;2023-05-09T09:20:33;6.30;;;1.90;;
5559;SDS011;2803;47.916;8.074;2023-05-09T09:23:01;7.23;;;2.73;;
5559;SDS011;2803;47.916;8.074;2023-05-09T09:25:29;2.03;;;1.67;;
5559;SDS011;2803;47.916;8.074;2023-05-09T09:27:56;9.60;;;2.03;;
5559;SDS011;2803;47.916;8.074;2023-05-09T09:30:23;10.73;;;2.73;;
5559;SDS011;2803;47.916;8.074;2023-05-09T09:32:51;7.00;;;2.43;;
5559;SDS011;2803;47.916;8.074;2023-05-09T09:35:18;5.50;;;2.50;;
5559;SDS011;2803;47.916;8.074;2023-05-09T09:37:45;3.53;;;1.77;;
5559;SDS011;2803;47.916;8.074;2023-05-09T09:40:12;3.30;;;1.80;;
5559;SDS011;2803;47.916;8.074;2023-05-09T09:42:39;1.90;;;1.63;;
5559;SDS011;2803;47.916;8.074;2023-05-09T09:45:08;4.60;;;1.43;;
5559;SDS011;2803;47.916;8.074;2023-05-09T09:47:35;2.70;;;1.27;;
5559;SDS011;2803;47.916;8.074;2023-05-09T09:50:09;3.10;;;1.50;;
5559;SDS011;2803;47.916;8.074;2023-05-09T09:52:40;2.93;;;1.07;;
5559;SDS011;2803;47.916;8.074;2023-05-09T09:55:08;1.57;;;1.37;;
5559;SDS011;2803;47.916;8.074;2023-05-09T09:57:35;3.23;;;1.33;;
5559;SDS011;2803;47.916;8.074;2023-05-09T10:00:04;1.57;;;1.47;;
5559;SDS011;2803;47.916;8.074;2023-05-09T10:02:31;2.43;;;1.33;;
5559;SDS011;2803;47.916;8.074;2023-05-09T10:05:04;1.60;;;1.20;;
5559;SDS011;2803;47.916;8.074;2023-05-09T10:07:34;3.33;;;1.30;;
5559;SDS011;2803;47.916;8.074;2023-05-09T10:10:01;4.77;;;1.53;;
5559;SDS011;2803;47.916;8.074;2023-05-09T10:12:30;3.07;;;1.70;;
5559;SDS011;2803;47.916;8.074;2023-05-09T10:14:59;2.43;;;1.33;;
5559;SDS011;2803;47.916;8.074;2023-05-09T10:17:28;3.00;;;1.20;;
5559;SDS011;2803;47.916;8.074;2023-05-09T10:19:57;7.70;;;3.13;;
5559;SDS011;2803;47.916;8.074;2023-05-09T10:22:24;3.87;;;1.43;;
5559;SDS011;2803;47.916;8.074;2023-05-09T10:24:54;2.07;;;1.20;;
5559;SDS011;2803;47.916;8.074;2023-05-09T10:27:27;1.93;;;1.40;;
5559;SDS011;2803;47.916;8.074;2023-05-09T10:30:01;2.73;;;1.27;;
5559;SDS011;2803;47.916;8.074;2023-05-09T10:32:30;1.70;;;1.60;;
5559;SDS011;2803;47.916;8.074;2023-05-09T10:35:04;2.07;;;1.10;;
5559;SDS011;2803;47.916;8.074;2023-05-09T10:37:32;5.47;;;1.73;;
5559;SDS011;2803;47.916;8.074;2023-05-09T10:40:00;5.33;;;1.80;;
5559;SDS011;2803;47.916;8.074;2023-05-09T10:42:29;5.17;;;1.53;;
5559;SDS011;2803;47.916;8.074;2023-05-09T10:44:56;2.30;;;1.80;;
5559;SDS011;2803;47.916;8.074;2023-05-09T10:47:23;2.10;;;1.30;;
5559;SDS011;2803;47.916;8.074;2023-05-09T10:49:51;9.33;;;1.40;;
5559;SDS011;2803;47.916;8.074;2023-05-09T10:52:19;2.40;;;1.57;;
5559;SDS011;2803;47.916;8.074;2023-05-09T10:54:53;2.20;;;1.73;;
5559;SDS011;2803;47.916;8.074;2023-05-09T10:57:25;2.13;;;1.77;;
5559;SDS011;2803;47.916;8.074;2023-05-09T10:59:52;2.03;;;1.67;;
5559;SDS011;2803;47.916;8.074;2023-05-09T11:02:21;3.33;;;1.50;;
5559;SDS011;2803;47.916;8.074;2023-05-09T11:07:38;3.23;;;1.40;;
5559;SDS011;2803;47.916;8.074;2023-05-09T11:10:06;2.90;;;1.67;;
5559;SDS011;2803;47.916;8.074;2023-05-09T11:12:35;4.17;;;1.50;;
5559;SDS011;2803;47.916;8.074;2023-05-09T11:15:18;5.10;;;1.50;;
5559;SDS011;2803;47.916;8.074;2023-05-09T11:17:46;1.97;;;1.77;;
5559;SDS011;2803;47.916;8.074;2023-05-09T11:20:29;5.57;;;1.83;;
5559;SDS011;2803;47.916;8.074;2023-05-09T11:22:59;3.73;;;1.70;;
5559;SDS011;2803;47.916;8.074;2023-05-09T11:25:28;3.97;;;2.00;;
5559;SDS011;2803;47.916;8.074;2023-05-09T11:27:59;2.43;;;1.80;;
5559;SDS011;2803;47.916;8.074;2023-05-09T11:30:34;6.40;;;2.07;;
5559;SDS011;2803;47.916;8.074;2023-05-09T11:33:03;6.13;;;1.80;;
5559;SDS011;2803;47.916;8.074;2023-05-09T11:35:30;1.70;;;1.60;;
5559;SDS011;2803;47.916;8.074;2023-05-09T11:37:58;8.50;;;1.90;;
5559;SDS011;2803;47.916;8.074;2023-05-09T11:40:26;10.20;;;2.07;;
5559;SDS011;2803;47.916;8.074;2023-05-09T11:42:54;2.30;;;2.10;;
5559;SDS011;2803;47.916;8.074;2023-05-09T11:45:24;2.93;;;1.80;;
5559;SDS011;2803;47.916;8.074;2023-05-09T11:47:52;4.80;;;2.07;;
5559;SDS011;2803;47.916;8.074;2023-05-09T11:50:19;2.70;;;1.50;;
5559;SDS011;2803;47.916;8.074;2023-05-09T11:52:46;1.80;;;1.70;;
5559;SDS011;2803;47.916;8.074;2023-05-09T11:55:14;3.00;;;2.20;;
5559;SDS011;2803;47.916;8.074;2023-05-09T11:57:42;4.03;;;2.00;;
5559;SDS011;2803;47.916;8.074;2023-05-09T12:00:11;8.57;;;1.87;;
5559;SDS011;2803;47.916;8.074;2023-05-09T12:02:42;3.50;;;2.17;;
5559;SDS011;2803;47.916;8.074;2023-05-09T12:05:10;4.20;;;1.90;;
5559;SDS011;2803;47.916;8.074;2023-05-09T12:07:38;2.87;;;2.23;;
5559;SDS011;2803;47.916;8.074;2023-05-09T12:10:05;5.63;;;2.00;;
5559;SDS011;2803;47.916;8.074;2023-05-09T12:12:33;9.27;;;2.30;;
5559;SDS011;2803;47.916;8.074;2023-05-09T12:15:02;3.50;;;1.87;;
5559;SDS011;2803;47.916;8.074;2023-05-09T12:17:29;5.90;;;2.17;;
5559;SDS011;2803;47.916;8.074;2023-05-09T12:19:58;11.20;;;2.10;;
5559;SDS011;2803;47.916;8.074;2023-05-09T12:22:27;8.00;;;2.53;;
5559;SDS011;2803;47.916;8.074;2023-05-09T12:24:54;11.10;;;2.20;;
5559;SDS011;2803;47.916;8.074;2023-05-09T12:27:21;2.47;;;1.80;;
5559;SDS011;2803;47.916;8.074;2023-05-09T12:29:50;4.40;;;2.23;;
5559;SDS011;2803;47.916;8.074;2023-05-09T12:32:17;8.00;;;2.10;;
5559;SDS011;2803;47.916;8.074;2023-05-09T12:34:44;3.13;;;2.00;;
5559;SDS011;2803;47.916;8.074;2023-05-09T12:37:14;2.43;;;2.10;;
5559;SDS011;2803;47.916;8.074;2023-05-09T12:39:43;3.40;;;2.00;;
5559;SDS011;2803;47.916;8.074;2023-05-09T12:42:25;3.67;;;2.83;;
5559;SDS011;2803;47.916;8.074;2023-05-09T12:44:52;2.70;;;2.00;;
5559;SDS011;2803;47.916;8.074;2023-05-09T12:47:19;6.37;;;2.30;;
5559;SDS011;2803;47.916;8.074;2023-05-09T12:49:47;10.40;;;2.80;;
5559;SDS011;2803;47.916;8.074;2023-05-09T12:52:17;5.77;;;1.90;;
5559;SDS011;2803;47.916;8.074;2023-05-09T12:54:45;8.77;;;2.33;;
5559;SDS011;2803;47.916;8.074;2023-05-09T12:57:19;8.73;;;1.87;;
5559;SDS011;2803;47.916;8.074;2023-05-09T12:59:47;10.10;;;2.07;;
5559;SDS011;2803;47.916;8.074;2023-05-09T13:02:14;2.13;;;1.93;;
5559;SDS011;2803;47.916;8.074;2023-05-09T13:04:41;2.33;;;1.90;;
5559;SDS011;2803;47.916;8.074;2023-05-09T13:07:08;3.50;;;2.23;;
5559;SDS011;2803;47.916;8.074;2023-05-09T13:09:43;5.53;;;2.00;;
5559;SDS011;2803;47.916;8.074;2023-05-09T13:12:20;8.10;;;2.20;;
5559;SDS011;2803;47.916;8.074;2023-05-09T13:14:48;2.10;;;1.90;;
5559;SDS011;2803;47.916;8.074;2023-05-09T13:17:15;4.90;;;1.90;;
5559;SDS011;2803;47.916;8.074;2023-05-09T13:19:42;3.53;;;1.80;;
5559;SDS011;2803;47.916;8.074;2023-05-09T13:22:09;4.43;;;2.07;;
5559;SDS011;2803;47.916;8.074;2023-05-09T13:24:36;3.63;;;2.50;;
5559;SDS011;2803;47.916;8.074;2023-05-09T13:27:03;3.40;;;1.90;;
5559;SDS011;2803;47.916;8.074;2023-05-09T13:29:30;3.40;;;1.83;;
5559;SDS011;2803;47.916;8.074;2023-05-09T13:31:56;2.10;;;1.63;;
5559;SDS011;2803;47.916;8.074;2023-05-09T13:34:23;4.17;;;2.17;;
5559;SDS011;2803;47.916;8.074;2023-05-09T13:36:50;3.20;;;2.00;;
5559;SDS011;2803;47.916;8.074;2023-05-09T13:39:17;3.20;;;2.13;;
5559;SDS011;2803;47.916;8.074;2023-05-09T13:41:45;2.93;;;1.50;;
5559;SDS011;2803;47.916;8.074;2023-05-09T13:44:12;2.10;;;1.87;;
5559;SDS011;2803;47.916;8.074;2023-05-09T13:46:39;2.10;;;1.90;;
5559;SDS011;2803;47.916;8.074;2023-05-09T13:49:06;2.67;;;1.87;;
5559;SDS011;2803;47.916;8.074;2023-05-09T13:51:32;3.07;;;2.00;;
5559;SDS011;2803;47.916;8.074;2023-05-09T13:53:59;2.37;;;1.60;;
5559;SDS011;2803;47.916;8.074;2023-05-09T13:56:26;5.23;;;1.90;;
5559;SDS011;2803;47.916;8.074;2023-05-09T13:58:54;4.40;;;1.97;;
5559;SDS011;2803;47.916;8.074;2023-05-09T14:01:20;2.27;;;2.07;;
5559;SDS011;2803;47.916;8.074;2023-05-09T14:03:47;6.93;;;2.10;;
5559;SDS011;2803;47.916;8.074;2023-05-09T14:06:14;3.20;;;1.70;;
5559;SDS011;2803;47.916;8.074;2023-05-09T14:08:40;3.47;;;2.03;;
5559;SDS011;2803;47.916;8.074;2023-05-09T14:11:07;2.90;;;2.10;;
5559;SDS011;2803;47.916;8.074;2023-05-09T14:13:34;8.03;;;2.20;;
5559;SDS011;2803;47.916;8.074;2023-05-09T14:16:02;6.80;;;2.50;;
5559;SDS011;2803;47.916;8.074;2023-05-09T14:18:29;2.43;;;2.07;;
5559;SDS011;2803;47.916;8.074;2023-05-09T14:20:55;2.90;;;2.00;;
5559;SDS011;2803;47.916;8.074;2023-05-09T14:23:22;4.63;;;2.20;;
5559;SDS011;2803;47.916;8.074;2023-05-09T14:25:49;3.50;;;1.97;;
5559;SDS011;2803;47.916;8.074;2023-05-09T14:28:15;1.87;;;1.77;;
5559;SDS011;2803;47.916;8.074;2023-05-09T14:30:42;3.20;;;2.10;;
5559;SDS011;2803;47.916;8.074;2023-05-09T14:33:10;6.53;;;2.40;;
5559;SDS011;2803;47.916;8.074;2023-05-09T14:35:38;3.20;;;2.30;;
5559;SDS011;2803;47.916;8.074;2023-05-09T14:38:05;3.60;;;2.10;;
5559;SDS011;2803;47.916;8.074;2023-05-09T14:40:32;6.37;;;2.40;;
5559;SDS011;2803;47.916;8.074;2023-05-09T14:42:58;5.83;;;2.00;;
5559;SDS011;2803;47.916;8.074;2023-05-09T14:45:26;8.17;;;2.20;;
5559;SDS011;2803;47.916;8.074;2023-05-09T14:47:53;4.70;;;2.30;;
5559;SDS011;2803;47.916;8.074;2023-05-09T14:50:21;6.40;;;2.53;;
5559;SDS011;2803;47.916;8.074;2023-05-09T14:52:48;2.50;;;2.00;;
5559;SDS011;2803;47.916;8.074;2023-05-09T14:55:15;6.27;;;2.03;;
5559;SDS011;2803;47.916;8.074;2023-05-09T14:57:42;3.93;;;2.50;;
5559;SDS011;2803;47.916;8.074;2023-05-09T15:00:09;4.33;;;2.40;;
5559;SDS011;2803;47.916;8.074;2023-05-09T15:02:37;2.50;;;2.30;;
5559;SDS011;2803;47.916;8.074;2023-05-09T15:05:04;5.40;;;2.60;;
5559;SDS011;2803;47.916;8.074;2023-05-09T15:07:33;3.23;;;2.90;;
5559;SDS011;2803;47.916;8.074;2023-05-09T15:10:00;3.90;;;2.60;;
5559;SDS011;2803;47.916;8.074;2023-05-09T15:12:28;4.73;;;2.80;;
5559;SDS011;2803;47.916;8.074;2023-05-09T15:14:56;3.73;;;2.87;;
5559;SDS011;2803;47.916;8.074;2023-05-09T15:17:23;4.60;;;2.70;;
5559;SDS011;2803;47.916;8.074;2023-05-09T15:19:50;3.63;;;2.70;;
5559;SDS011;2803;47.916;8.074;2023-05-09T15:22:17;6.13;;;2.77;;